Terminal Aerodrome Forecast
Issued by NWS

Current Version | Previous Version | Text Only | Print | Product List | Glossary Off
Versions: 1 2 3 4 5 6 7 8 9 10 11 12 13 14 15 16 17

334
FTUS41 KILN 110540
TAFLUK
TAF
KLUK 110540Z 1106/1206 00000KT P6SM FEW250
     FM111300 20008KT P6SM SCT080 BKN150=

USA.gov is the U.S. government's official web portal to all federal, state and local government web resources and services.